createdAt,value
2018-03-30T00:02:05.017Z,8.74
2018-03-30T00:04:32.443Z,8.76
2018-03-30T00:07:07.788Z,8.74
2018-03-30T00:09:47.111Z,8.65
2018-03-30T00:12:14.779Z,8.61
2018-03-30T00:14:42.169Z,8.54
2018-03-30T00:17:09.567Z,8.46
2018-03-30T00:19:37.008Z,8.35
2018-03-30T00:22:04.500Z,8.28
2018-03-30T00:24:31.915Z,8.21
2018-03-30T00:26:59.400Z,8.19
2018-03-30T00:29:26.858Z,8.16
2018-03-30T00:31:54.274Z,8.15
2018-03-30T00:34:21.693Z,8.06
2018-03-30T00:36:49.153Z,7.97
2018-03-30T00:39:16.576Z,8.04
2018-03-30T00:41:44.012Z,8.00
2018-03-30T00:44:11.448Z,7.94
2018-03-30T00:46:38.910Z,7.89
2018-03-30T00:49:06.358Z,7.85
2018-03-30T00:51:33.788Z,7.84
2018-03-30T00:54:01.183Z,7.82
2018-03-30T00:56:28.634Z,7.78
2018-03-30T00:58:56.076Z,7.71
2018-03-30T01:01:23.503Z,7.65
2018-03-30T01:03:50.950Z,7.67
2018-03-30T01:06:18.405Z,7.60
2018-03-30T01:08:45.803Z,7.59
2018-03-30T01:11:13.189Z,7.58
2018-03-30T01:13:40.672Z,7.50
2018-03-30T01:16:09.068Z,7.50
2018-03-30T01:18:36.542Z,7.51
2018-03-30T01:21:03.996Z,7.56
2018-03-30T01:23:31.396Z,7.59
2018-03-30T01:25:58.833Z,7.54
2018-03-30T01:28:26.274Z,7.52
2018-03-30T01:30:53.705Z,7.45
2018-03-30T01:33:21.162Z,7.33
2018-03-30T01:35:48.949Z,7.35
2018-03-30T01:38:16.373Z,7.32
2018-03-30T01:40:44.306Z,7.30
2018-03-30T01:43:11.758Z,7.17
2018-03-30T01:45:39.208Z,7.11
2018-03-30T01:48:06.601Z,7.01
2018-03-30T01:50:34.001Z,7.03
2018-03-30T01:53:01.620Z,7.01
2018-03-30T01:55:29.031Z,7.06
2018-03-30T01:57:56.486Z,7.13
2018-03-30T02:00:23.915Z,7.12
2018-03-30T02:02:51.316Z,7.15
2018-03-30T02:05:18.710Z,7.18
2018-03-30T02:07:46.145Z,7.17
2018-03-30T02:10:13.958Z,7.16
2018-03-30T02:12:41.392Z,7.16
2018-03-30T02:15:08.824Z,7.17
2018-03-30T02:17:36.245Z,7.20
2018-03-30T02:20:03.640Z,7.17
2018-03-30T02:22:31.406Z,7.13
2018-03-30T02:24:58.846Z,7.16
2018-03-30T02:27:26.723Z,7.18
2018-03-30T02:29:54.176Z,7.18
2018-03-30T02:32:21.906Z,7.23
2018-03-30T02:34:49.498Z,7.25
2018-03-30T02:37:16.923Z,7.20
2018-03-30T02:39:44.408Z,7.22
2018-03-30T02:42:11.871Z,7.23
2018-03-30T02:44:39.265Z,7.22
2018-03-30T02:47:06.699Z,7.19
2018-03-30T02:49:34.157Z,7.20
2018-03-30T02:52:01.631Z,7.24
2018-03-30T02:54:29.144Z,7.24
2018-03-30T02:56:56.640Z,7.22
2018-03-30T02:59:24.085Z,7.20
2018-03-30T03:01:51.558Z,7.19
2018-03-30T03:04:19.941Z,7.16
2018-03-30T03:06:47.688Z,7.11
2018-03-30T03:09:15.121Z,7.09
2018-03-30T03:11:42.533Z,7.12
2018-03-30T03:14:09.958Z,7.15
2018-03-30T03:16:37.360Z,7.15
2018-03-30T03:19:04.823Z,7.08
2018-03-30T03:21:32.254Z,7.01
2018-03-30T03:23:59.862Z,6.96
2018-03-30T03:26:27.248Z,6.98
2018-03-30T03:28:54.711Z,6.99
2018-03-30T03:31:22.109Z,6.99
2018-03-30T03:33:49.545Z,6.87
2018-03-30T03:36:16.973Z,6.80
2018-03-30T03:38:44.432Z,6.77
2018-03-30T03:41:11.871Z,6.75
2018-03-30T03:43:39.335Z,6.77
2018-03-30T03:46:06.800Z,6.76
2018-03-30T03:48:34.280Z,6.75
2018-03-30T03:51:01.706Z,6.81
2018-03-30T03:53:29.113Z,6.92
2018-03-30T03:55:56.543Z,6.93
2018-03-30T03:58:23.994Z,6.90
2018-03-30T04:00:51.407Z,6.90
2018-03-30T04:03:18.880Z,6.92
2018-03-30T04:05:46.385Z,6.96
2018-03-30T04:08:13.774Z,6.99
2018-03-30T04:10:41.251Z,7.01
2018-03-30T04:13:08.675Z,6.98
2018-03-30T04:15:36.061Z,6.98
2018-03-30T04:18:04.023Z,6.98
2018-03-30T04:20:31.410Z,6.84
2018-03-30T04:22:58.865Z,6.82
2018-03-30T04:25:26.299Z,6.86
2018-03-30T04:27:53.726Z,6.92
2018-03-30T04:30:21.754Z,6.95
2018-03-30T04:32:49.191Z,6.97
2018-03-30T04:35:16.644Z,6.96
2018-03-30T04:37:44.105Z,6.90
2018-03-30T04:40:11.499Z,6.97
2018-03-30T04:42:38.938Z,6.98
2018-03-30T04:45:06.358Z,6.98
2018-03-30T04:47:33.760Z,6.94
2018-03-30T04:50:01.195Z,6.97
2018-03-30T04:52:28.621Z,7.01
2018-03-30T04:54:56.097Z,7.00
2018-03-30T04:57:23.874Z,7.06
2018-03-30T04:59:51.361Z,7.06
2018-03-30T05:02:18.747Z,7.08
2018-03-30T05:04:46.173Z,7.08
2018-03-30T05:07:13.627Z,7.18
2018-03-30T05:09:41.065Z,7.25
2018-03-30T05:12:08.509Z,7.18
2018-03-30T05:14:35.963Z,7.24
2018-03-30T05:17:03.383Z,7.32
2018-03-30T05:19:30.846Z,7.39
2018-03-30T05:21:58.371Z,7.46
2018-03-30T05:24:25.764Z,7.47
2018-03-30T05:26:53.228Z,7.47
2018-03-30T05:29:20.682Z,7.50
2018-03-30T05:31:48.109Z,7.56
2018-03-30T05:34:15.635Z,7.57
2018-03-30T05:36:43.245Z,7.60
2018-03-30T05:39:10.677Z,7.69
2018-03-30T05:41:38.308Z,7.71
2018-03-30T05:44:05.769Z,7.70
2018-03-30T05:46:33.223Z,7.67
2018-03-30T05:49:00.650Z,7.67
2018-03-30T05:51:28.102Z,7.68
2018-03-30T05:53:55.558Z,7.70
2018-03-30T05:56:23.841Z,7.65
2018-03-30T05:58:51.297Z,7.63
2018-03-30T06:01:18.724Z,7.65
2018-03-30T06:03:46.580Z,7.65
2018-03-30T06:06:14.060Z,7.61
2018-03-30T06:08:41.530Z,7.67
2018-03-30T06:11:08.956Z,7.71
2018-03-30T06:13:37.363Z,7.79
2018-03-30T06:16:04.790Z,7.85
2018-03-30T06:18:32.202Z,7.88
2018-03-30T06:20:59.673Z,7.83
2018-03-30T06:23:27.068Z,7.77
2018-03-30T06:25:54.499Z,7.67
2018-03-30T06:28:21.932Z,7.71
2018-03-30T06:30:49.366Z,7.68
2018-03-30T06:33:16.763Z,7.62
2018-03-30T06:35:44.584Z,7.63
2018-03-30T06:38:11.987Z,7.52
2018-03-30T06:40:39.439Z,7.54
2018-03-30T06:43:06.872Z,7.65
2018-03-30T06:45:34.350Z,7.71
2018-03-30T06:48:01.844Z,7.78
2018-03-30T06:50:29.285Z,7.76
2018-03-30T06:52:56.720Z,7.71
2018-03-30T06:55:24.123Z,7.65
2018-03-30T06:57:51.555Z,7.71
2018-03-30T07:00:18.986Z,7.76
2018-03-30T07:02:46.404Z,7.81
2018-03-30T07:05:13.914Z,7.65
2018-03-30T07:07:41.329Z,7.67
2018-03-30T07:10:08.764Z,7.70
2018-03-30T07:12:36.246Z,7.75
2018-03-30T07:15:03.651Z,7.72
2018-03-30T07:17:31.102Z,7.79
2018-03-30T07:19:58.516Z,7.89
2018-03-30T07:22:26.105Z,7.75
2018-03-30T07:24:53.558Z,7.62
2018-03-30T07:27:20.948Z,7.57
2018-03-30T07:29:48.369Z,7.57
2018-03-30T07:32:15.844Z,7.65
2018-03-30T07:34:43.563Z,7.70
2018-03-30T07:37:10.997Z,7.67
2018-03-30T07:39:38.406Z,7.76
2018-03-30T07:42:05.840Z,7.88
2018-03-30T07:44:33.273Z,7.86
2018-03-30T07:47:00.672Z,7.87
2018-03-30T07:49:28.256Z,8.05
2018-03-30T07:51:55.694Z,8.02
2018-03-30T07:54:23.092Z,8.00
2018-03-30T07:56:50.541Z,7.99
2018-03-30T07:59:17.981Z,7.99
2018-03-30T08:01:45.368Z,8.02
2018-03-30T08:04:12.833Z,8.07
2018-03-30T08:06:40.264Z,8.01
2018-03-30T08:09:07.758Z,8.02
2018-03-30T08:11:35.228Z,8.03
2018-03-30T08:14:02.898Z,8.11
2018-03-30T08:16:30.329Z,8.17
2018-03-30T08:18:57.806Z,8.17
2018-03-30T08:21:25.283Z,8.03
2018-03-30T08:23:52.680Z,8.14
2018-03-30T08:26:20.165Z,8.22
2018-03-30T08:28:47.556Z,8.19
2018-03-30T08:31:15.010Z,8.13
2018-03-30T08:33:42.455Z,8.04
2018-03-30T08:36:09.983Z,8.05
2018-03-30T08:38:37.401Z,8.19
2018-03-30T08:41:04.823Z,8.23
2018-03-30T08:43:32.283Z,8.36
2018-03-30T08:45:59.756Z,8.52
2018-03-30T08:48:27.718Z,8.46
2018-03-30T08:50:55.153Z,8.39
2018-03-30T08:53:22.614Z,8.38
2018-03-30T08:55:50.060Z,8.72
2018-03-30T08:58:17.489Z,8.92
2018-03-30T09:00:44.958Z,9.18
2018-03-30T09:03:12.405Z,9.27
2018-03-30T09:05:39.873Z,9.27
2018-03-30T09:08:07.335Z,9.46
2018-03-30T09:10:34.785Z,9.69
2018-03-30T09:13:02.206Z,9.74
2018-03-30T09:15:29.620Z,10.15
2018-03-30T09:17:57.039Z,11.08
2018-03-30T09:20:24.498Z,12.09
2018-03-30T09:22:51.861Z,12.54
2018-03-30T09:25:19.316Z,12.68
2018-03-30T09:27:47.143Z,12.36
2018-03-30T09:30:14.543Z,11.75
2018-03-30T09:32:41.955Z,11.47
2018-03-30T09:35:09.398Z,12.00
2018-03-30T09:37:36.866Z,12.58
2018-03-30T09:40:04.325Z,12.54
2018-03-30T09:42:31.749Z,12.75
2018-03-30T09:44:59.227Z,12.95
2018-03-30T09:47:26.632Z,13.13
2018-03-30T09:49:54.102Z,12.90
2018-03-30T09:52:21.537Z,12.46
2018-03-30T09:54:49.006Z,12.24
2018-03-30T09:57:16.419Z,12.09
2018-03-30T09:59:43.869Z,11.91
2018-03-30T10:02:11.361Z,11.67
2018-03-30T10:04:45.013Z,11.59
2018-03-30T10:07:12.457Z,11.69
2018-03-30T10:09:40.157Z,12.13
2018-03-30T10:12:07.549Z,12.10
2018-03-30T10:14:35.026Z,12.14
2018-03-30T10:17:02.518Z,12.00
2018-03-30T10:19:30.019Z,11.66
2018-03-30T10:21:58.249Z,11.31
2018-03-30T10:24:25.676Z,11.16
2018-03-30T10:26:53.653Z,11.19
2018-03-30T10:29:21.065Z,10.90
2018-03-30T10:31:48.518Z,10.61
2018-03-30T10:34:15.915Z,10.59
2018-03-30T10:36:43.336Z,10.72
2018-03-30T10:39:10.812Z,10.73
2018-03-30T10:41:38.280Z,10.66
2018-03-30T10:44:05.690Z,10.62
2018-03-30T10:46:33.149Z,10.96
2018-03-30T10:49:00.651Z,10.98
2018-03-30T10:51:28.279Z,11.20
2018-03-30T10:53:55.701Z,10.97
2018-03-30T10:56:23.138Z,10.87
2018-03-30T10:58:50.585Z,10.78
2018-03-30T11:01:18.059Z,10.50
2018-03-30T11:03:45.488Z,10.45
2018-03-30T11:06:12.894Z,10.27
2018-03-30T11:08:40.560Z,10.02
2018-03-30T11:11:08.917Z,10.15
2018-03-30T11:13:36.414Z,10.41
2018-03-30T11:16:03.838Z,10.59
2018-03-30T11:18:31.306Z,10.69
2018-03-30T11:20:58.737Z,10.78
2018-03-30T11:23:26.203Z,10.71
2018-03-30T11:25:53.884Z,10.71
2018-03-30T11:28:21.327Z,10.67
2018-03-30T11:30:48.742Z,10.55
2018-03-30T11:33:16.185Z,10.65
2018-03-30T11:35:43.604Z,10.53
2018-03-30T11:38:11.087Z,10.43
2018-03-30T11:40:38.482Z,10.46
2018-03-30T11:43:05.977Z,10.23
2018-03-30T11:45:33.764Z,10.10
2018-03-30T11:48:01.204Z,10.00
2018-03-30T11:50:28.673Z,9.98
2018-03-30T11:52:56.052Z,9.94
2018-03-30T11:55:23.509Z,10.07
2018-03-30T11:57:50.943Z,10.04
2018-03-30T12:00:18.437Z,9.94
2018-03-30T12:02:45.906Z,9.77
2018-03-30T12:05:13.328Z,9.39
2018-03-30T12:07:40.768Z,9.31
2018-03-30T12:10:08.230Z,9.22
2018-03-30T12:12:35.654Z,9.00
2018-03-30T12:15:03.092Z,8.91
2018-03-30T12:17:30.486Z,8.76
2018-03-30T12:19:57.920Z,8.55
2018-03-30T12:22:25.600Z,8.54
2018-03-30T12:24:53.187Z,8.71
2018-03-30T12:27:20.623Z,8.85
2018-03-30T12:29:48.093Z,8.86
2018-03-30T12:32:15.504Z,8.79
2018-03-30T12:34:42.990Z,8.89
2018-03-30T12:37:10.416Z,8.85
2018-03-30T12:39:37.984Z,8.75
2018-03-30T12:42:05.502Z,8.71
2018-03-30T12:44:32.960Z,8.74
2018-03-30T12:47:00.426Z,8.94
2018-03-30T12:49:27.887Z,9.06
2018-03-30T12:51:55.307Z,9.16
2018-03-30T12:54:22.796Z,9.26
2018-03-30T12:56:50.249Z,9.26
2018-03-30T12:59:17.642Z,9.22
2018-03-30T13:01:45.248Z,9.17
2018-03-30T13:04:12.689Z,9.02
2018-03-30T13:06:40.077Z,8.89
2018-03-30T13:09:07.519Z,8.95
2018-03-30T13:11:34.945Z,9.08
2018-03-30T13:14:02.411Z,9.15
2018-03-30T13:16:29.825Z,9.12
2018-03-30T13:18:57.267Z,9.07
2018-03-30T13:21:24.782Z,9.15
2018-03-30T13:23:52.368Z,9.21
2018-03-30T13:26:19.805Z,9.03
2018-03-30T13:28:47.217Z,8.93
2018-03-30T13:31:14.674Z,9.10
2018-03-30T13:33:42.095Z,9.17
2018-03-30T13:36:09.557Z,9.35
2018-03-30T13:38:36.977Z,9.45
2018-03-30T13:41:04.596Z,9.50
2018-03-30T13:43:32.029Z,9.45
2018-03-30T13:45:59.439Z,9.18
2018-03-30T13:48:26.835Z,9.13
2018-03-30T13:51:10.063Z,9.15
2018-03-30T13:53:42.062Z,9.14
2018-03-30T13:56:11.088Z,9.10
2018-03-30T13:58:38.588Z,9.04
2018-03-30T14:01:18.808Z,8.99
2018-03-30T14:03:48.115Z,8.95
2018-03-30T14:06:29.333Z,8.97
2018-03-30T14:08:57.666Z,9.05
2018-03-30T14:11:25.984Z,9.05
2018-03-30T14:13:53.419Z,9.16
2018-03-30T14:16:28.433Z,9.30
2018-03-30T14:19:13.533Z,9.31
2018-03-30T14:21:44.482Z,9.30
2018-03-30T14:24:26.766Z,9.30
2018-03-30T14:27:00.211Z,9.38
2018-03-30T14:29:29.596Z,9.37
2018-03-30T14:32:05.502Z,9.40
2018-03-30T14:34:34.693Z,9.38
2018-03-30T14:39:56.175Z,9.82
2018-03-30T14:42:36.152Z,9.79
2018-03-30T14:45:17.294Z,9.73
2018-03-30T14:47:46.138Z,9.67
2018-03-30T14:50:16.263Z,9.59
2018-03-30T14:52:52.130Z,9.46
2018-03-30T14:55:40.251Z,9.32
2018-03-30T14:58:12.557Z,9.25
2018-03-30T15:00:42.655Z,9.27
2018-03-30T15:03:26.621Z,9.22
2018-03-30T15:06:00.560Z,9.04
2018-03-30T15:08:37.468Z,8.80
2018-03-30T15:14:10.045Z,9.05
2018-03-30T15:16:40.277Z,9.00
2018-03-30T15:19:14.337Z,8.98
2018-03-30T15:21:45.356Z,8.94
2018-03-30T15:24:18.561Z,8.87
2018-03-30T15:26:50.128Z,8.78
2018-03-30T15:29:24.959Z,8.72
2018-03-30T15:31:59.796Z,8.57
2018-03-30T15:34:27.192Z,8.59
2018-03-30T15:37:04.557Z,8.52
2018-03-30T15:39:32.042Z,8.49
2018-03-30T15:42:01.345Z,8.42
2018-03-30T15:44:29.398Z,8.22
2018-03-30T15:47:07.518Z,7.97
2018-03-30T15:49:36.516Z,7.91
2018-03-30T15:52:07.571Z,7.92
2018-03-30T15:54:35.023Z,7.76
2018-03-30T15:57:02.424Z,7.77
2018-03-30T15:59:29.841Z,7.70
2018-03-30T16:01:57.250Z,7.63
2018-03-30T16:04:24.683Z,7.53
2018-03-30T16:06:52.142Z,7.51
2018-03-30T16:09:30.434Z,7.37
2018-03-30T16:11:59.649Z,7.18
2018-03-30T16:14:27.052Z,7.18
2018-03-30T16:16:54.479Z,7.30
2018-03-30T16:19:21.614Z,7.32
2018-03-30T16:21:48.544Z,7.39
2018-03-30T16:24:15.449Z,7.36
2018-03-30T16:26:42.394Z,7.37
2018-03-30T16:29:09.277Z,7.31
2018-03-30T16:31:36.197Z,7.14
2018-03-30T16:34:03.137Z,7.09
2018-03-30T16:36:30.014Z,7.12
2018-03-30T16:38:56.888Z,7.24
2018-03-30T16:41:23.820Z,7.38
2018-03-30T16:43:50.726Z,7.51
2018-03-30T16:46:17.577Z,7.55
2018-03-30T16:48:44.465Z,7.51
2018-03-30T16:51:11.325Z,7.26
2018-03-30T16:53:38.212Z,7.00
2018-03-30T16:56:05.107Z,6.96
2018-03-30T16:58:32.055Z,6.90
2018-03-30T17:00:59.009Z,6.88
2018-03-30T17:03:25.856Z,6.88
2018-03-30T17:05:52.887Z,6.85
2018-03-30T17:08:19.769Z,6.94
2018-03-30T17:10:46.621Z,7.07
2018-03-30T17:13:13.484Z,7.13
2018-03-30T17:15:40.369Z,7.24
2018-03-30T17:18:07.282Z,7.39
2018-03-30T17:20:34.218Z,7.52
2018-03-30T17:23:01.107Z,7.66
2018-03-30T17:25:27.983Z,7.71
2018-03-30T17:27:54.951Z,7.70
2018-03-30T17:30:21.910Z,7.69
2018-03-30T17:32:48.791Z,7.60
2018-03-30T17:35:15.688Z,7.46
2018-03-30T17:37:42.674Z,7.35
2018-03-30T17:40:09.541Z,7.29
2018-03-30T17:42:37.195Z,7.20
2018-03-30T17:45:04.086Z,7.17
2018-03-30T17:47:30.966Z,7.11
2018-03-30T17:49:57.849Z,7.12
2018-03-30T17:52:24.764Z,7.08
2018-03-30T17:54:51.674Z,7.13
2018-03-30T17:57:18.565Z,7.17
2018-03-30T17:59:45.440Z,7.09
2018-03-30T18:02:12.440Z,7.03
2018-03-30T18:04:39.373Z,6.94
2018-03-30T18:07:06.228Z,6.89
2018-03-30T18:09:33.161Z,6.91
2018-03-30T18:12:00.042Z,6.94
2018-03-30T18:14:26.924Z,6.98
2018-03-30T18:16:53.826Z,6.96
2018-03-30T18:19:20.692Z,6.89
2018-03-30T18:21:47.868Z,6.89
2018-03-30T18:24:14.763Z,6.91
2018-03-30T18:26:41.624Z,6.91
2018-03-30T18:29:08.473Z,6.96
2018-03-30T18:31:35.330Z,6.91
2018-03-30T18:34:02.246Z,6.97
2018-03-30T18:36:29.101Z,7.00
2018-03-30T18:38:56.014Z,6.96
2018-03-30T18:41:22.921Z,6.99
2018-03-30T18:43:50.252Z,7.02
2018-03-30T18:46:17.178Z,7.02
2018-03-30T18:48:44.099Z,6.89
2018-03-30T18:51:10.964Z,6.80
2018-03-30T18:53:37.820Z,6.84
2018-03-30T18:56:04.748Z,7.00
2018-03-30T18:58:31.754Z,7.09
2018-03-30T19:00:58.682Z,7.06
2018-03-30T19:03:25.602Z,7.06
2018-03-30T19:05:52.518Z,6.95
2018-03-30T19:08:19.434Z,6.88
2018-03-30T19:10:46.315Z,6.88
2018-03-30T19:13:13.266Z,6.89
2018-03-30T19:15:40.149Z,6.99
2018-03-30T19:18:07.000Z,7.07
2018-03-30T19:20:33.923Z,7.09
2018-03-30T19:23:00.916Z,7.14
2018-03-30T19:25:27.813Z,7.19
2018-03-30T19:27:54.732Z,7.19
2018-03-30T19:30:21.679Z,7.19
2018-03-30T19:32:49.553Z,7.23
2018-03-30T19:35:16.463Z,7.23
2018-03-30T19:37:43.640Z,7.25
2018-03-30T19:40:10.564Z,7.27
2018-03-30T19:42:37.415Z,7.34
2018-03-30T19:45:04.348Z,7.38
2018-03-30T19:47:31.464Z,7.40
2018-03-30T19:49:58.523Z,7.33
2018-03-30T19:52:25.571Z,7.32
2018-03-30T19:54:52.456Z,7.30
2018-03-30T19:57:19.393Z,7.24
2018-03-30T19:59:46.319Z,7.19
2018-03-30T20:02:13.222Z,7.22
2018-03-30T20:04:40.182Z,7.18
2018-03-30T20:07:07.310Z,7.14
2018-03-30T20:09:34.237Z,7.01
2018-03-30T20:12:01.104Z,6.95
2018-03-30T20:14:28.127Z,6.92
2018-03-30T20:16:55.065Z,6.91
2018-03-30T20:19:21.953Z,6.95
2018-03-30T20:21:48.871Z,6.99
2018-03-30T20:24:15.793Z,6.92
2018-03-30T20:26:42.706Z,6.91
2018-03-30T20:29:09.611Z,6.97
2018-03-30T20:31:36.527Z,6.96
2018-03-30T20:34:03.380Z,6.96
2018-03-30T20:36:30.276Z,6.94
2018-03-30T20:38:57.175Z,6.98
2018-03-30T20:41:24.053Z,7.02
2018-03-30T20:43:50.936Z,7.02
2018-03-30T20:46:17.819Z,6.89
2018-03-30T20:48:44.958Z,6.81
2018-03-30T20:51:11.840Z,6.76
2018-03-30T20:53:38.702Z,6.80
2018-03-30T20:56:05.589Z,6.82
2018-03-30T20:58:32.444Z,6.80
2018-03-30T21:00:59.335Z,6.74
2018-03-30T21:03:26.245Z,6.70
2018-03-30T21:05:53.159Z,6.78
2018-03-30T21:08:20.078Z,6.83
2018-03-30T21:10:46.936Z,6.78
2018-03-30T21:13:13.785Z,6.78
2018-03-30T21:15:40.673Z,6.83
2018-03-30T21:18:07.567Z,6.83
2018-03-30T21:20:34.462Z,6.70
2018-03-30T21:23:01.355Z,6.62
2018-03-30T21:25:28.593Z,6.62
2018-03-30T21:27:56.102Z,6.66
2018-03-30T21:30:22.992Z,6.70
2018-03-30T21:32:49.855Z,6.68
2018-03-30T21:35:16.771Z,6.71
2018-03-30T21:37:43.624Z,6.66
2018-03-30T21:40:10.538Z,6.63
2018-03-30T21:42:37.423Z,6.60
2018-03-30T21:45:04.293Z,6.58
2018-03-30T21:47:31.141Z,6.64
2018-03-30T21:49:58.035Z,6.71
2018-03-30T21:52:24.909Z,6.76
2018-03-30T21:54:51.836Z,6.79
2018-03-30T21:57:18.858Z,6.83
2018-03-30T21:59:45.735Z,6.79
2018-03-30T22:02:12.670Z,6.81
2018-03-30T22:04:39.517Z,6.90
2018-03-30T22:07:06.379Z,6.97
2018-03-30T22:09:33.238Z,6.99
2018-03-30T22:12:00.096Z,7.04
2018-03-30T22:14:26.992Z,7.10
2018-03-30T22:16:53.880Z,7.15
2018-03-30T22:19:20.741Z,7.11
2018-03-30T22:21:48.101Z,7.01
2018-03-30T22:24:15.007Z,6.92
2018-03-30T22:26:42.429Z,6.94
2018-03-30T22:29:09.268Z,6.96
2018-03-30T22:31:36.116Z,7.06
2018-03-30T22:34:03.010Z,7.12
2018-03-30T22:36:30.180Z,7.14
2018-03-30T22:38:57.092Z,7.12
2018-03-30T22:41:23.934Z,7.05
2018-03-30T22:43:50.829Z,7.02
2018-03-30T22:46:17.711Z,6.93
2018-03-30T22:48:44.663Z,6.91
2018-03-30T22:51:11.524Z,6.97
2018-03-30T22:53:38.451Z,7.06
2018-03-30T22:56:05.339Z,7.06
2018-03-30T22:58:32.194Z,6.95
2018-03-30T23:00:59.847Z,6.85
2018-03-30T23:03:26.738Z,6.81
2018-03-30T23:05:53.643Z,6.76
2018-03-30T23:08:20.493Z,6.82
2018-03-30T23:10:47.343Z,6.81
2018-03-30T23:13:14.200Z,6.75
2018-03-30T23:15:41.115Z,6.73
2018-03-30T23:18:07.974Z,6.72
2018-03-30T23:20:34.886Z,6.76
2018-03-30T23:23:01.765Z,6.79
2018-03-30T23:25:28.637Z,6.79
2018-03-30T23:27:55.530Z,6.75
2018-03-30T23:30:22.563Z,6.75
2018-03-30T23:32:49.445Z,6.78
2018-03-30T23:35:16.356Z,6.72
2018-03-30T23:37:43.317Z,6.67
2018-03-30T23:40:10.186Z,6.71
2018-03-30T23:42:37.059Z,6.69
2018-03-30T23:45:03.924Z,6.65
2018-03-30T23:47:30.888Z,6.73
2018-03-30T23:49:57.752Z,6.76
2018-03-30T23:52:24.780Z,6.67
2018-03-30T23:54:51.658Z,6.69
2018-03-30T23:57:18.720Z,6.74
2018-03-30T23:59:45.597Z,6.75
